createdAt,value
2023-02-19T00:01:52.992Z,101123.81
2023-02-19T00:04:22.521Z,101125.78
2023-02-19T00:06:50.947Z,101135.22
2023-02-19T00:09:20.355Z,101127.94
2023-02-19T00:11:50.387Z,101110.97
2023-02-19T00:14:21.133Z,101099.69
2023-02-19T00:16:49.620Z,101101.66
2023-02-19T00:19:20.635Z,101101.56
2023-02-19T00:21:49.398Z,101100.09
2023-02-19T00:24:17.342Z,101101.56
2023-02-19T00:26:46.778Z,101118.28
2023-02-19T00:29:18.469Z,101103.16
2023-02-19T00:31:47.366Z,101111.44
2023-02-19T00:34:16.018Z,101115.50
2023-02-19T00:36:44.669Z,101089.81
2023-02-19T00:39:15.562Z,101118.19
2023-02-19T00:41:44.420Z,101118.81
2023-02-19T00:44:13.507Z,101114.13
2023-02-19T00:46:44.734Z,101115.66
2023-02-19T00:49:16.787Z,101108.16
2023-02-19T00:51:45.085Z,101098.88
2023-02-19T00:54:13.693Z,101095.31
2023-02-19T00:56:42.005Z,101105.38
2023-02-19T00:59:10.410Z,101118.06
2023-02-19T01:01:39.508Z,101105.13
2023-02-19T01:04:09.051Z,101111.34
2023-02-19T01:06:37.849Z,101114.81
2023-02-19T01:09:07.024Z,101114.72
2023-02-19T01:11:35.588Z,101112.41
2023-02-19T01:14:04.867Z,101130.88
2023-02-19T01:16:33.485Z,101095.56
2023-02-19T01:19:01.626Z,101106.41
2023-02-19T01:21:31.897Z,101107.22
2023-02-19T01:24:00.130Z,101126.81
2023-02-19T01:26:30.879Z,101130.03
2023-02-19T01:28:59.867Z,101124.38
2023-02-19T01:31:28.757Z,101108.59
2023-02-19T01:33:59.111Z,101101.44
2023-02-19T01:36:27.873Z,101111.72
2023-02-19T01:38:57.359Z,101090.75
2023-02-19T01:41:26.828Z,101090.06
2023-02-19T01:44:01.424Z,101094.78
2023-02-19T01:46:30.814Z,101089.38
2023-02-19T01:49:00.463Z,101098.03
2023-02-19T01:51:28.959Z,101097.69
2023-02-19T01:54:00.478Z,101100.44
2023-02-19T01:56:29.353Z,101092.25
2023-02-19T01:58:58.101Z,101099.06
2023-02-19T02:01:26.461Z,101088.44
2023-02-19T02:03:54.490Z,101085.69
2023-02-19T02:06:24.749Z,101077.84
2023-02-19T02:09:12.520Z,101093.31
2023-02-19T02:11:45.497Z,101069.09
2023-02-19T02:14:13.483Z,101073.00
2023-02-19T02:16:50.538Z,101079.59
2023-02-19T02:19:39.476Z,101074.63
2023-02-19T02:22:12.596Z,101073.34
2023-02-19T02:25:14.294Z,101068.16
2023-02-19T02:27:53.195Z,101076.66
2023-02-19T02:30:30.992Z,101070.34
2023-02-19T02:33:04.307Z,101070.56
2023-02-19T02:35:36.221Z,101061.38
2023-02-19T02:38:08.472Z,101060.44
2023-02-19T02:40:36.950Z,101045.28
2023-02-19T02:43:05.305Z,101056.56
2023-02-19T02:45:38.299Z,101048.94
2023-02-19T02:48:19.668Z,101043.47
2023-02-19T02:50:52.006Z,101043.78
2023-02-19T02:53:42.148Z,101041.34
2023-02-19T02:56:11.383Z,101039.50
2023-02-19T02:58:39.959Z,101044.09
2023-02-19T03:01:30.476Z,101048.16
2023-02-19T03:04:02.366Z,101055.81
2023-02-19T03:06:32.630Z,101049.28
2023-02-19T03:09:06.162Z,101057.31
2023-02-19T03:11:53.306Z,101048.16
2023-02-19T03:14:41.559Z,101043.88
2023-02-19T03:17:30.988Z,101044.06
2023-02-19T03:20:02.433Z,101054.88
2023-02-19T03:22:34.969Z,101033.28
2023-02-19T03:25:26.114Z,101043.22
2023-02-19T03:27:55.524Z,101056.91
2023-02-19T03:30:26.655Z,101064.59
2023-02-19T03:32:59.251Z,101055.97
2023-02-19T03:35:31.296Z,101054.44
2023-02-19T03:38:05.103Z,101048.88
2023-02-19T03:40:42.674Z,101060.88
2023-02-19T03:43:16.597Z,101044.75
2023-02-19T03:45:48.996Z,101036.31
2023-02-19T03:48:35.873Z,101035.97
2023-02-19T03:51:15.249Z,101035.34
2023-02-19T03:53:50.688Z,101031.16
2023-02-19T03:56:23.740Z,101049.22
2023-02-19T03:58:56.026Z,101033.53
2023-02-19T04:01:29.212Z,101046.84
2023-02-19T04:04:01.123Z,101020.47
2023-02-19T04:06:31.697Z,101051.75
2023-02-19T04:09:01.748Z,101060.84
2023-02-19T04:11:31.799Z,101052.72
2023-02-19T04:14:08.592Z,101055.38
2023-02-19T04:16:39.959Z,101055.78
2023-02-19T04:19:12.728Z,101057.59
2023-02-19T04:21:41.877Z,101050.53
2023-02-19T04:24:13.293Z,101056.75
2023-02-19T04:26:42.404Z,101053.72
2023-02-19T04:29:10.403Z,101057.00
2023-02-19T04:31:38.972Z,101058.28
2023-02-19T04:34:06.957Z,101069.97
2023-02-19T04:36:36.574Z,101064.56
2023-02-19T04:39:04.768Z,101057.59
2023-02-19T04:41:33.065Z,101062.06
2023-02-19T04:44:01.072Z,101064.19
2023-02-19T04:46:29.408Z,101064.75
2023-02-19T04:48:57.461Z,101079.66
2023-02-19T04:51:25.870Z,101068.06
2023-02-19T04:53:56.192Z,101068.25
2023-02-19T04:56:24.499Z,101073.97
2023-02-19T04:58:52.641Z,101067.94
2023-02-19T05:01:20.977Z,101079.03
2023-02-19T05:03:49.068Z,101064.84
2023-02-19T05:06:17.479Z,101071.03
2023-02-19T05:08:45.676Z,101076.31
2023-02-19T05:11:15.633Z,101071.13
2023-02-19T05:13:43.655Z,101063.09
2023-02-19T05:16:15.794Z,101075.28
2023-02-19T05:18:45.846Z,101072.50
2023-02-19T05:21:14.462Z,101077.41
2023-02-19T05:23:42.807Z,101076.63
2023-02-19T05:26:13.589Z,101076.47
2023-02-19T05:28:43.075Z,101081.91
2023-02-19T05:31:12.872Z,101088.66
2023-02-19T05:33:42.852Z,101076.78
2023-02-19T05:36:12.764Z,101084.09
2023-02-19T05:38:41.988Z,101091.75
2023-02-19T05:41:12.604Z,101085.25
2023-02-19T05:43:41.200Z,101081.59
2023-02-19T05:46:14.201Z,101089.69
2023-02-19T05:48:42.520Z,101086.06
2023-02-19T05:51:12.972Z,101081.31
2023-02-19T05:53:41.342Z,101081.03
2023-02-19T05:56:25.285Z,101083.81
2023-02-19T05:58:54.120Z,101083.22
2023-02-19T06:01:25.825Z,101082.91
2023-02-19T06:03:57.110Z,101091.59
2023-02-19T06:06:26.760Z,101089.09
2023-02-19T06:08:55.372Z,101098.75
2023-02-19T06:11:23.940Z,101109.56
2023-02-19T06:13:52.111Z,101103.97
2023-02-19T06:16:21.862Z,101103.59
2023-02-19T06:18:52.196Z,101109.66
2023-02-19T06:21:20.988Z,101114.41
2023-02-19T06:23:49.037Z,101114.19
2023-02-19T06:26:18.879Z,101115.97
2023-02-19T06:28:48.542Z,101127.34
2023-02-19T06:31:17.832Z,101131.84
2023-02-19T06:33:46.014Z,101135.81
2023-02-19T06:36:17.396Z,101144.47
2023-02-19T06:38:45.691Z,101139.19
2023-02-19T06:41:14.616Z,101135.13
2023-02-19T06:43:43.128Z,101134.66
2023-02-19T06:46:12.490Z,101134.13
2023-02-19T06:48:41.610Z,101151.75
2023-02-19T06:51:13.020Z,101155.81
2023-02-19T06:53:42.941Z,101156.97
2023-02-19T06:56:24.640Z,101166.16
2023-02-19T06:58:53.298Z,101165.28
2023-02-19T07:01:21.780Z,101168.00
2023-02-19T07:03:50.015Z,101180.34
2023-02-19T07:06:18.376Z,101182.31
2023-02-19T07:08:47.734Z,101180.75
2023-02-19T07:11:16.965Z,101176.53
2023-02-19T07:13:45.297Z,101198.69
2023-02-19T07:16:13.865Z,101192.59
2023-02-19T07:18:41.925Z,101195.31
2023-02-19T07:21:12.947Z,101200.19
2023-02-19T07:23:41.860Z,101199.16
2023-02-19T07:26:12.927Z,101197.69
2023-02-19T07:28:41.258Z,101193.63
2023-02-19T07:31:09.971Z,101202.00
2023-02-19T07:33:38.361Z,101195.47
2023-02-19T07:36:08.950Z,101201.56
2023-02-19T07:38:37.046Z,101199.00
2023-02-19T07:41:06.277Z,101192.94
2023-02-19T07:43:36.633Z,101193.63
2023-02-19T07:46:05.914Z,101190.28
2023-02-19T07:48:35.413Z,101193.97
2023-02-19T07:51:04.512Z,101189.13
2023-02-19T07:53:36.419Z,101200.00
2023-02-19T07:56:06.593Z,101206.19
2023-02-19T07:58:36.496Z,101199.44
2023-02-19T08:01:09.506Z,101195.59
2023-02-19T08:03:37.341Z,101207.00
2023-02-19T08:06:06.380Z,101220.91
2023-02-19T08:08:34.391Z,101230.44
2023-02-19T08:11:20.670Z,101229.56
2023-02-19T08:13:50.970Z,101226.47
2023-02-19T08:16:29.684Z,101230.28
2023-02-19T08:19:05.304Z,101237.75
2023-02-19T08:21:34.431Z,101232.25
2023-02-19T08:24:02.553Z,101232.50
2023-02-19T08:26:30.866Z,101233.09
2023-02-19T08:29:00.265Z,101242.44
2023-02-19T08:31:28.607Z,101237.97
2023-02-19T08:33:56.718Z,101235.78
2023-02-19T08:36:25.122Z,101229.31
2023-02-19T08:38:53.322Z,101234.97
2023-02-19T08:41:21.834Z,101236.59
2023-02-19T08:43:50.022Z,101257.91
2023-02-19T08:46:19.675Z,101251.69
2023-02-19T08:48:47.721Z,101258.63
2023-02-19T08:51:15.940Z,101261.06
2023-02-19T08:53:44.010Z,101256.91
2023-02-19T08:56:14.308Z,101285.13
2023-02-19T08:58:42.543Z,101279.81
2023-02-19T09:01:12.370Z,101283.75
2023-02-19T09:03:42.214Z,101300.38
2023-02-19T09:06:15.226Z,101285.75
2023-02-19T09:08:43.358Z,101281.13
2023-02-19T09:11:12.005Z,101287.16
2023-02-19T09:13:40.262Z,101304.88
2023-02-19T09:16:11.786Z,101299.56
2023-02-19T09:18:39.992Z,101311.47
2023-02-19T09:21:09.994Z,101315.88
2023-02-19T09:23:38.649Z,101307.56
2023-02-19T09:26:09.920Z,101303.75
2023-02-19T09:28:41.384Z,101301.34
2023-02-19T09:31:12.166Z,101314.94
2023-02-19T09:33:43.396Z,101323.47
2023-02-19T09:36:13.348Z,101318.41
2023-02-19T09:38:41.592Z,101321.44
2023-02-19T09:41:14.632Z,101320.13
2023-02-19T09:43:43.134Z,101326.84
2023-02-19T09:46:24.091Z,101338.72
2023-02-19T09:48:53.458Z,101334.81
2023-02-19T09:51:23.779Z,101329.28
2023-02-19T09:53:52.727Z,101325.78
2023-02-19T09:56:21.013Z,101330.44
2023-02-19T09:58:50.141Z,101329.84
2023-02-19T10:01:18.918Z,101333.88
2023-02-19T10:03:48.466Z,101332.28
2023-02-19T10:06:21.685Z,101345.88
2023-02-19T10:08:52.690Z,101338.94
2023-02-19T10:11:21.260Z,101332.03
2023-02-19T10:13:50.799Z,101325.78
2023-02-19T10:16:22.809Z,101328.81
2023-02-19T10:18:50.882Z,101313.94
2023-02-19T10:21:21.285Z,101319.94
2023-02-19T10:23:53.381Z,101333.91
2023-02-19T10:26:21.622Z,101324.44
2023-02-19T10:28:49.681Z,101324.22
2023-02-19T10:31:20.938Z,101323.28
2023-02-19T10:33:53.730Z,101329.28
2023-02-19T10:36:29.217Z,101332.28
2023-02-19T10:39:00.699Z,101330.66
2023-02-19T10:41:29.496Z,101332.72
2023-02-19T10:44:03.252Z,101327.06
2023-02-19T10:46:33.855Z,101343.22
2023-02-19T10:49:21.598Z,101341.72
2023-02-19T10:51:50.395Z,101334.22
2023-02-19T10:54:21.614Z,101335.09
2023-02-19T10:56:49.927Z,101348.28
2023-02-19T10:59:25.216Z,101354.63
2023-02-19T11:01:58.386Z,101362.72
2023-02-19T11:04:27.779Z,101359.94
2023-02-19T11:06:57.352Z,101364.31
2023-02-19T11:09:29.449Z,101362.91
2023-02-19T11:11:58.464Z,101381.91
2023-02-19T11:14:27.966Z,101385.31
2023-02-19T11:16:58.009Z,101382.75
2023-02-19T11:19:37.332Z,101398.81
2023-02-19T11:22:20.357Z,101402.34
2023-02-19T11:24:53.125Z,101397.38
2023-02-19T11:27:25.531Z,101402.69
2023-02-19T11:29:53.769Z,101406.78
2023-02-19T11:32:27.583Z,101403.56
2023-02-19T11:35:17.736Z,101392.00
2023-02-19T11:37:56.008Z,101393.03
2023-02-19T11:40:34.777Z,101388.28
2023-02-19T11:43:09.602Z,101386.47
2023-02-19T11:45:40.373Z,101385.78
2023-02-19T11:48:33.606Z,101386.03
2023-02-19T11:51:15.798Z,101368.81
2023-02-19T11:53:49.765Z,101385.47
2023-02-19T11:56:44.563Z,101374.25
2023-02-19T11:59:21.738Z,101373.47
2023-02-19T12:02:33.466Z,101379.22
2023-02-19T12:05:17.985Z,101384.16
2023-02-19T12:08:02.644Z,101383.00
2023-02-19T12:10:36.588Z,101383.56
2023-02-19T12:13:13.405Z,101385.63
2023-02-19T12:16:03.865Z,101377.75
2023-02-19T12:18:46.480Z,101373.56
2023-02-19T12:21:27.571Z,101375.63
2023-02-19T12:24:16.729Z,101361.13
2023-02-19T12:27:01.144Z,101394.81
2023-02-19T12:29:46.748Z,101392.38
2023-02-19T12:32:29.120Z,101410.03
2023-02-19T12:35:20.646Z,101390.38
2023-02-19T12:37:54.205Z,101395.63
2023-02-19T12:40:41.993Z,101376.09
2023-02-19T12:43:48.713Z,101377.50
2023-02-19T12:46:59.243Z,101366.34
2023-02-19T12:49:52.926Z,101375.78
2023-02-19T12:52:49.721Z,101393.31
2023-02-19T12:58:47.815Z,101378.75
2023-02-19T13:01:28.477Z,101323.00
2023-02-19T13:04:34.568Z,101352.44
2023-02-19T13:07:55.984Z,101361.88
2023-02-19T13:10:35.031Z,101362.91
2023-02-19T13:13:12.456Z,101365.34
2023-02-19T13:19:03.923Z,101337.38
2023-02-19T13:22:16.951Z,101342.06
2023-02-19T13:24:51.643Z,101363.47
2023-02-19T13:28:02.464Z,101342.34
2023-02-19T13:35:16.118Z,101344.69
2023-02-19T13:37:52.910Z,101345.66
2023-02-19T13:41:04.641Z,101330.22
2023-02-19T13:43:38.721Z,101332.75
2023-02-19T13:46:09.236Z,101322.38
2023-02-19T13:48:42.399Z,101336.88
2023-02-19T13:51:42.056Z,101363.22
2023-02-19T13:54:29.429Z,101345.16
2023-02-19T13:57:29.685Z,101338.25
2023-02-19T14:00:00.095Z,101336.94
2023-02-19T14:02:33.101Z,101332.59
2023-02-19T14:05:07.169Z,101356.75
2023-02-19T14:07:39.579Z,101345.66
2023-02-19T14:10:16.243Z,101369.72
2023-02-19T14:12:54.524Z,101367.75
2023-02-19T14:15:44.128Z,101355.06
2023-02-19T14:18:44.481Z,101365.84
2023-02-19T14:21:18.596Z,101380.78
2023-02-19T14:23:55.670Z,101378.16
2023-02-19T14:26:26.051Z,101387.50
2023-02-19T14:28:56.180Z,101392.94
2023-02-19T14:31:31.576Z,101390.69
2023-02-19T14:34:06.618Z,101400.22
2023-02-19T14:36:48.824Z,101401.00
2023-02-19T14:39:22.422Z,101406.38
2023-02-19T14:41:53.416Z,101393.66
2023-02-19T14:44:27.964Z,101391.56
2023-02-19T14:46:58.735Z,101397.84
2023-02-19T14:49:30.827Z,101400.59
2023-02-19T14:52:00.924Z,101387.88
2023-02-19T14:54:39.745Z,101389.97
2023-02-19T14:57:15.955Z,101401.75
2023-02-19T14:59:56.109Z,101406.25
2023-02-19T15:02:27.876Z,101395.53
2023-02-19T15:04:57.548Z,101414.69
2023-02-19T15:07:30.213Z,101410.44
2023-02-19T15:10:05.084Z,101416.13
2023-02-19T15:12:43.511Z,101406.19
2023-02-19T15:15:21.832Z,101403.47
2023-02-19T15:17:53.544Z,101413.09
2023-02-19T15:20:25.387Z,101420.97
2023-02-19T15:22:54.333Z,101423.94
2023-02-19T15:25:24.942Z,101413.22
2023-02-19T15:27:55.582Z,101416.28
2023-02-19T15:30:26.648Z,101424.34
2023-02-19T15:32:55.869Z,101418.63
2023-02-19T15:35:44.665Z,101420.44
2023-02-19T15:38:13.420Z,101436.75
2023-02-19T15:40:46.893Z,101434.00
2023-02-19T15:43:28.689Z,101437.81
2023-02-19T15:46:01.007Z,101453.88
2023-02-19T15:48:34.098Z,101440.50
2023-02-19T15:51:09.019Z,101444.88
2023-02-19T15:53:39.406Z,101449.13
2023-02-19T15:56:10.602Z,101450.19
2023-02-19T15:58:43.587Z,101450.88
2023-02-19T16:01:17.505Z,101451.56
2023-02-19T16:03:46.006Z,101470.97
2023-02-19T16:06:18.538Z,101459.66
2023-02-19T16:08:47.675Z,101467.84
2023-02-19T16:11:35.360Z,101467.75
2023-02-19T16:14:24.937Z,101471.28
2023-02-19T16:16:57.302Z,101451.81
2023-02-19T16:19:55.680Z,101465.53
2023-02-19T16:22:33.702Z,101456.78
2023-02-19T16:25:08.345Z,101462.28
2023-02-19T16:27:42.797Z,101463.72
2023-02-19T16:30:29.713Z,101451.59
2023-02-19T16:33:29.784Z,101446.03
2023-02-19T16:36:19.578Z,101451.78
2023-02-19T16:39:17.066Z,101443.22
2023-02-19T16:42:15.007Z,101419.69
2023-02-19T16:44:48.093Z,101450.50
2023-02-19T16:47:35.976Z,101433.28
2023-02-19T16:50:12.991Z,101448.28
2023-02-19T16:52:54.944Z,101460.34
2023-02-19T16:55:23.554Z,101458.00
2023-02-19T16:57:53.430Z,101461.78
2023-02-19T17:00:32.662Z,101460.34
2023-02-19T17:03:08.743Z,101457.34
2023-02-19T17:05:38.197Z,101457.88
2023-02-19T17:08:24.092Z,101468.75
2023-02-19T17:10:56.266Z,101469.81
2023-02-19T17:13:24.440Z,101479.41
2023-02-19T17:15:52.795Z,101486.03
2023-02-19T17:18:22.331Z,101481.63
2023-02-19T17:20:54.102Z,101494.16
2023-02-19T17:23:26.482Z,101491.88
2023-02-19T17:25:54.826Z,101498.97
2023-02-19T17:28:22.888Z,101510.69
2023-02-19T17:31:01.178Z,101506.28
2023-02-19T17:33:34.300Z,101514.72
2023-02-19T17:36:04.437Z,101523.34
2023-02-19T17:38:34.586Z,101535.84
2023-02-19T17:41:04.937Z,101531.28
2023-02-19T17:43:33.957Z,101547.94
2023-02-19T17:46:06.186Z,101548.09
2023-02-19T17:48:35.755Z,101545.00
2023-02-19T17:51:04.070Z,101564.31
2023-02-19T17:53:33.896Z,101556.94
2023-02-19T17:56:05.750Z,101555.59
2023-02-19T17:58:35.497Z,101563.88
2023-02-19T18:01:05.899Z,101567.97
2023-02-19T18:03:35.658Z,101564.16
2023-02-19T18:06:05.835Z,101577.78
2023-02-19T18:08:34.005Z,101576.28
2023-02-19T18:11:03.007Z,101576.53
2023-02-19T18:13:31.399Z,101580.13
2023-02-19T18:15:59.720Z,101574.91
2023-02-19T18:18:27.733Z,101563.88
2023-02-19T18:20:57.371Z,101570.31
2023-02-19T18:23:25.416Z,101577.72
2023-02-19T18:25:53.652Z,101587.88
2023-02-19T18:28:21.678Z,101584.50
2023-02-19T18:30:50.160Z,101599.22
2023-02-19T18:33:18.368Z,101590.09
2023-02-19T18:35:47.420Z,101602.91
2023-02-19T18:38:16.838Z,101605.56
2023-02-19T18:40:45.259Z,101613.56
2023-02-19T18:43:13.655Z,101609.53
2023-02-19T18:45:43.270Z,101627.94
2023-02-19T18:48:11.374Z,101628.22
2023-02-19T18:50:40.096Z,101628.06
2023-02-19T18:53:08.113Z,101631.13
2023-02-19T18:55:37.841Z,101642.16
2023-02-19T18:58:05.930Z,101641.34
2023-02-19T19:00:34.311Z,101634.47
2023-02-19T19:03:02.618Z,101632.03
2023-02-19T19:05:31.114Z,101630.38
2023-02-19T19:08:01.668Z,101630.69
2023-02-19T19:10:30.399Z,101637.41
2023-02-19T19:12:59.841Z,101632.03
2023-02-19T19:15:28.269Z,101628.50
2023-02-19T19:17:56.496Z,101626.53
2023-02-19T19:20:24.893Z,101632.44
2023-02-19T19:22:53.873Z,101635.63
2023-02-19T19:25:23.473Z,101634.72
2023-02-19T19:27:51.883Z,101638.22
2023-02-19T19:30:22.173Z,101637.41
2023-02-19T19:32:50.346Z,101641.59
2023-02-19T19:35:19.408Z,101634.28
2023-02-19T19:37:48.056Z,101634.31
2023-02-19T19:40:17.195Z,101628.91
2023-02-19T19:42:45.244Z,101627.34
2023-02-19T19:45:14.204Z,101623.59
2023-02-19T19:47:43.663Z,101621.41
2023-02-19T19:50:13.192Z,101619.03
2023-02-19T19:52:41.449Z,101639.09
2023-02-19T19:55:09.734Z,101635.41
2023-02-19T19:57:40.589Z,101641.66
2023-02-19T20:00:10.158Z,101634.47
2023-02-19T20:02:41.147Z,101632.22
2023-02-19T20:05:11.780Z,101640.09
2023-02-19T20:07:39.863Z,101647.66
2023-02-19T20:10:11.030Z,101659.78
2023-02-19T20:12:39.747Z,101650.47
2023-02-19T20:15:10.704Z,101646.81
2023-02-19T20:17:38.850Z,101646.41
2023-02-19T20:20:08.616Z,101638.47
2023-02-19T20:22:39.202Z,101645.22
2023-02-19T20:25:07.743Z,101652.63
2023-02-19T20:27:35.759Z,101649.38
2023-02-19T20:30:04.262Z,101637.34
2023-02-19T20:32:32.669Z,101653.63
2023-02-19T20:35:00.950Z,101654.66
2023-02-19T20:37:29.076Z,101655.84
2023-02-19T20:39:58.684Z,101661.09
2023-02-19T20:42:26.926Z,101661.56
2023-02-19T20:44:56.452Z,101666.88
2023-02-19T20:47:24.477Z,101669.66
2023-02-19T20:49:52.862Z,101667.66
2023-02-19T20:52:21.759Z,101665.22
2023-02-19T20:54:50.187Z,101674.16
2023-02-19T20:57:19.631Z,101673.97
2023-02-19T20:59:47.961Z,101667.47
2023-02-19T21:02:19.501Z,101670.72
2023-02-19T21:04:48.738Z,101666.88
2023-02-19T21:07:17.307Z,101668.50
2023-02-19T21:09:45.556Z,101675.34
2023-02-19T21:12:13.601Z,101669.69
2023-02-19T21:14:43.249Z,101668.50
2023-02-19T21:17:11.422Z,101671.72
2023-02-19T21:19:39.951Z,101660.88
2023-02-19T21:22:08.085Z,101659.50
2023-02-19T21:24:36.418Z,101655.41
2023-02-19T21:27:04.550Z,101664.13
2023-02-19T21:29:32.831Z,101663.53
2023-02-19T21:32:02.216Z,101650.91
2023-02-19T21:34:30.715Z,101648.84
2023-02-19T21:36:59.728Z,101659.44
2023-02-19T21:39:28.670Z,101654.59
2023-02-19T21:41:58.646Z,101655.44
2023-02-19T21:44:27.433Z,101657.06
2023-02-19T21:46:55.793Z,101663.53
2023-02-19T21:49:25.516Z,101666.78
2023-02-19T21:51:53.515Z,101669.91
2023-02-19T21:54:25.034Z,101669.16
2023-02-19T21:56:54.248Z,101689.97
2023-02-19T21:59:23.689Z,101692.56
2023-02-19T22:01:52.135Z,101689.22
2023-02-19T22:04:24.450Z,101680.25
2023-02-19T22:06:57.250Z,101696.47
2023-02-19T22:09:25.491Z,101684.84
2023-02-19T22:11:53.476Z,101677.69
2023-02-19T22:14:22.403Z,101678.84
2023-02-19T22:16:51.642Z,101677.25
2023-02-19T22:19:19.980Z,101671.41
2023-02-19T22:21:48.042Z,101675.88
2023-02-19T22:24:20.117Z,101678.81
2023-02-19T22:26:50.478Z,101680.31
2023-02-19T22:29:19.009Z,101666.81
2023-02-19T22:31:47.350Z,101683.28
2023-02-19T22:34:16.627Z,101680.97
2023-02-19T22:36:44.840Z,101692.63
2023-02-19T22:39:19.029Z,101695.44
2023-02-19T22:41:47.485Z,101690.41
2023-02-19T22:44:16.299Z,101692.44
2023-02-19T22:46:48.091Z,101698.56
2023-02-19T22:49:16.914Z,101696.97
2023-02-19T22:51:49.433Z,101689.22
2023-02-19T22:54:21.735Z,101692.22
2023-02-19T22:56:49.723Z,101701.97
2023-02-19T22:59:18.220Z,101704.19
2023-02-19T23:01:46.600Z,101698.13
2023-02-19T23:04:14.969Z,101703.81
2023-02-19T23:06:43.899Z,101702.22
2023-02-19T23:09:16.600Z,101702.47
2023-02-19T23:11:46.133Z,101711.16
2023-02-19T23:14:16.781Z,101708.41
2023-02-19T23:16:45.116Z,101710.41
2023-02-19T23:19:15.446Z,101705.06
2023-02-19T23:21:45.083Z,101716.47
2023-02-19T23:24:13.699Z,101705.44
2023-02-19T23:26:43.505Z,101709.72
2023-02-19T23:29:15.167Z,101709.44
2023-02-19T23:31:43.350Z,101707.50
2023-02-19T23:34:11.966Z,101705.03
2023-02-19T23:36:43.288Z,101699.34
2023-02-19T23:39:13.445Z,101709.47
2023-02-19T23:41:47.000Z,101706.22
2023-02-19T23:44:17.172Z,101699.75
2023-02-19T23:46:45.356Z,101703.16
2023-02-19T23:49:13.687Z,101702.22
2023-02-19T23:51:41.701Z,101698.38
2023-02-19T23:54:10.238Z,101701.81
2023-02-19T23:56:38.331Z,101702.25
2023-02-19T23:59:06.617Z,101708.03
